| time (UTC) | temp C | wind direction | speed KPH | gust KPH | rain 1hr cm | rain 24hr cm | rain mn cm | humidity % | barometer mb |
| 20260906103011 | 20 | 115 | 3.2 | 6.4 | 0.00 | 0.00 | 0.00 | 97 | 1020.7 |
| 20260906101533 | 20 | 119 | 0.0 | 4.8 | 0.00 | 0.00 | 0.00 | 97 | 1020.8 |
| 20260906100005 | 20 | 120 | 3.2 | 6.4 | 0.00 | 0.00 | 0.00 | 97 | 1020.7 |
| 20260906094528 | 20 | 133 | 3.2 | 11.3 | 0.00 | 0.00 | 0.00 | 97 | 1020.1 |
| 20260906093054 | 20 | 112 | 3.2 | 11.3 | 0.00 | 0.00 | 0.00 | 97 | 1019.8 |
| 20260906091525 | 20 | 93 | 4.8 | 11.3 | 0.00 | 0.00 | 0.00 | 97 | 1019.5 |
| 20260906090053 | 21 | 94 | 3.2 | 11.3 | 0.00 | 0.00 | 0.00 | 96 | 1019.7 |
| 20260906084523 | 21 | 95 | 1.6 | 9.7 | 0.00 | 0.00 | 0.00 | 96 | 1019.7 |
| 20260906083051 | 21 | 96 | 4.8 | 11.3 | 0.00 | 0.00 | 0.00 | 96 | 1019.6 |
| 20260906081519 | 21 | 125 | 4.8 | 12.9 | 0.00 | 0.00 | 0.00 | 95 | 1019.6 |
| 20260906080040 | 21 | 99 | 6.4 | 12.9 | 0.00 | 0.00 | 0.00 | 95 | 1019.7 |
| 20260906074513 | 21 | 104 | 3.2 | 14.5 | 0.00 | 0.00 | 0.00 | 94 | 1019.7 |
| 20260906073040 | 21 | 75 | 8.0 | 16.1 | 0.00 | 0.00 | 0.00 | 94 | 1019.7 |
| 20260906071514 | 21 | 93 | 1.6 | 12.9 | 0.00 | 0.00 | 0.00 | 94 | 1019.8 |
| 20260906070042 | 22 | 110 | 3.2 | 16.1 | 0.00 | 0.00 | 0.00 | 94 | 1020.0 |
| 20260906064517 | 22 | 80 | 4.8 | 12.9 | 0.00 | 0.00 | 0.00 | 94 | 1020.5 |
| 20260906063043 | 22 | 68 | 4.8 | 14.5 | 0.00 | 0.00 | 0.00 | 93 | 1020.5 |
| 20260906061511 | 22 | 62 | 3.2 | 11.3 | 0.00 | 0.00 | 0.00 | 93 | 1020.5 |
| 20260906060027 | 22 | 85 | 4.8 | 12.9 | 0.00 | 0.00 | 0.00 | 92 | 1020.4 |
| 20260906054604 | 22 | 68 | 8.0 | 14.5 | 0.00 | 0.00 | 0.00 | 93 | 1020.2 |
| 20260906053024 | 22 | 84 | 3.2 | 11.3 | 0.00 | 0.00 | 0.00 | 93 | 1019.9 |
| 20260906051606 | 22 | 85 | 4.8 | 9.7 | 0.00 | 0.00 | 0.00 | 93 | 1019.9 |
| 20260906050025 | 22 | 54 | 4.8 | 9.7 | 0.00 | 0.00 | 0.00 | 92 | 1019.7 |
| 20260906044550 | 22 | 62 | 4.8 | 12.9 | 0.00 | 0.00 | 0.00 | 92 | 1019.9 |
| 20260906043018 | 23 | 66 | 3.2 | 9.7 | 0.00 | 0.00 | 0.00 | 91 | 1019.8 |
| 20260906041542 | 23 | 83 | 1.6 | 6.4 | 0.00 | 0.00 | 0.00 | 91 | 1019.8 |
| 20260906040026 | 23 | 81 | 1.6 | 6.4 | 0.00 | 0.00 | 0.00 | 91 | 1019.7 |
| 20260906034555 | 23 | 60 | 0.0 | 6.4 | 0.00 | 0.00 | 0.00 | 91 | 1019.8 |
| 20260906033038 | 23 | 62 | 3.2 | 9.7 | 0.00 | 0.00 | 0.00 | 90 | 1019.6 |
| 20260906031545 | 23 | 87 | 0.0 | 6.4 | 0.00 | 0.00 | 0.00 | 90 | 1019.5 |
| 20260906030016 | 23 | 92 | 1.6 | 9.7 | 0.00 | 0.00 | 0.00 | 90 | 1019.2 |
| 20260906024542 | 23 | 84 | 3.2 | 9.7 | 0.00 | 0.00 | 0.00 | 90 | 1019.2 |
| 20260906023104 | 23 | 104 | 3.2 | 9.7 | 0.00 | 0.00 | 0.00 | 90 | 1019.0 |
| 20260906021528 | 24 | 65 | 4.8 | 9.7 | 0.00 | 0.00 | 0.00 | 90 | 1018.9 |
| 20260906020101 | 24 | 82 | 4.8 | 12.9 | 0.00 | 0.00 | 0.00 | 90 | 1018.6 |
| 20260906020002 | 24 | 85 | 3.2 | 12.9 | 0.00 | 0.00 | 0.00 | 90 | 1018.6 |
| 20260906014532 | 25 | 81 | 4.8 | 9.7 | 0.00 | 0.00 | 0.00 | 89 | 1018.3 |
| 20260906013109 | 25 | 77 | 1.6 | 6.4 | 0.00 | 0.00 | 0.00 | 88 | 1018.1 |
| 20260906011526 | 25 | 87 | 0.0 | 1.6 | 0.00 | 0.00 | 0.00 | 88 | 1017.8 |
| 20260906010052 | 25 | 89 | 0.0 | 4.8 | 0.00 | 0.00 | 0.00 | 88 | 1017.8 |
| 20260906004523 | 25 | 102 | 0.0 | 0.0 | 0.00 | 0.00 | 0.00 | 88 | 1017.6 |
| 20260906003054 | 25 | 102 | 0.0 | 3.2 | 0.00 | 0.00 | 0.00 | 88 | 1017.6 |
| 20260906001524 | 25 | 103 | 3.2 | 9.7 | 0.00 | 0.00 | 0.00 | 87 | 1017.4 |
| 20260906000051 | 25 | 87 | 4.8 | 11.3 | 0.00 | 0.00 | 0.00 | 86 | 1017.3 |
| 20260905234510 | 26 | 83 | 3.2 | 8.0 | 0.00 | 0.00 | 0.00 | 84 | 1017.5 |
| 20260905233055 | 26 | 64 | 4.8 | 14.5 | 0.00 | 0.00 | 0.00 | 82 | 1017.5 |
| 20260905231520 | 27 | 73 | 4.8 | 14.5 | 0.00 | 0.00 | 0.00 | 80 | 1017.6 |
| 20260905230043 | 27 | 93 | 1.6 | 17.7 | 0.00 | 0.00 | 0.00 | 82 | 1017.2 |
| 20260905224534 | 27 | 64 | 9.7 | 19.3 | 0.00 | 0.00 | 0.00 | 82 | 1017.0 |
| 20260905223048 | 27 | 44 | 9.7 | 20.9 | 0.00 | 0.00 | 0.00 | 80 | 1017.0 |
| 20260905221519 | 27 | 60 | 9.7 | 20.9 | 0.00 | 0.00 | 0.00 | 81 | 1017.1 |
| 20260905220054 | 28 | 63 | 11.3 | 22.5 | 0.00 | 0.00 | 0.00 | 82 | 1017.1 |
| 20260905214528 | 28 | 83 | 6.4 | 20.9 | 0.00 | 0.00 | 0.00 | 80 | 1017.1 |
| 20260905213101 | 28 | 49 | 9.7 | 20.9 | 0.00 | 0.00 | 0.00 | 80 | 1017.1 |
| 20260905211537 | 28 | 60 | 8.0 | 20.9 | 0.00 | 0.00 | 0.00 | 81 | 1017.1 |
| 20260905210049 | 28 | 29 | 9.7 | 20.9 | 0.00 | 0.00 | 0.00 | 83 | 1017.5 |
| 20260905204517 | 28 | 55 | 6.4 | 16.1 | 0.00 | 0.00 | 0.00 | 82 | 1017.7 |
| 20260905203047 | 28 | 59 | 8.0 | 17.7 | 0.00 | 0.00 | 0.00 | 82 | 1017.9 |
| 20260905201522 | 28 | 66 | 4.8 | 16.1 | 0.00 | 0.00 | 0.00 | 80 | 1018.0 |
| 20260905200047 | 29 | 54 | 8.0 | 17.7 | 0.00 | 0.00 | 0.00 | 81 | 1018.0 |
| 20260905194521 | 29 | 64 | 6.4 | 17.7 | 0.00 | 0.00 | 0.00 | 80 | 1018.1 |
| 20260905193043 | 29 | 34 | 6.4 | 17.7 | 0.00 | 0.00 | 0.00 | 80 | 1018.2 |
| 20260905191517 | 29 | 44 | 6.4 | 16.1 | 0.00 | 0.00 | 0.00 | 80 | 1018.4 |
| 20260905190044 | 29 | 16 | 1.6 | 14.5 | 0.00 | 0.00 | 0.00 | 80 | 1018.6 |
| 20260905184526 | 29 | 23 | 3.2 | 14.5 | 0.00 | 0.00 | 0.00 | 82 | 1018.6 |
| 20260905183049 | 28 | 67 | 6.4 | 14.5 | 0.00 | 0.00 | 0.00 | 82 | 1018.6 |
| 20260905181510 | 28 | 38 | 3.2 | 16.1 | 0.00 | 0.00 | 0.00 | 83 | 1018.7 |
| 20260905180042 | 28 | 218 | 3.2 | 14.5 | 0.00 | 0.00 | 0.00 | 84 | 1018.5 |
| 20260905174503 | 28 | 9 | 6.4 | 19.3 | 0.00 | 0.00 | 0.00 | 83 | 1018.3 |
| 20260905173100 | 29 | 31 | 9.7 | 20.9 | 0.00 | 0.00 | 0.00 | 83 | 1018.3 |
| 20260905171557 | 30 | 45 | 9.7 | 19.3 | 0.00 | 0.00 | 0.00 | 81 | 1018.4 |
| 20260905170035 | 30 | 66 | 9.7 | 20.9 | 0.00 | 0.00 | 0.00 | 81 | 1018.4 |
| 20260905164515 | 30 | 41 | 4.8 | 16.1 | 0.00 | 0.00 | 0.00 | 81 | 1018.3 |
| 20260905163026 | 30 | 68 | 9.7 | 19.3 | 0.00 | 0.00 | 0.00 | 79 | 1018.3 |
| 20260905161605 | 30 | 50 | 6.4 | 16.1 | 0.00 | 0.00 | 0.00 | 81 | 1018.2 |
| 20260905160015 | 30 | 36 | 6.4 | 14.5 | 0.00 | 0.00 | 0.00 | 82 | 1018.4 |
| 20260905154537 | 29 | 37 | 8.0 | 14.5 | 0.00 | 0.00 | 0.00 | 82 | 1018.3 |
| 20260905153057 | 28 | 64 | 8.0 | 17.7 | 0.00 | 0.00 | 0.00 | 83 | 1018.3 |
| 20260905151533 | 28 | 66 | 6.4 | 16.1 | 0.00 | 0.00 | 0.00 | 83 | 1018.3 |
| 20260905150100 | 28 | 39 | 6.4 | 12.9 | 0.00 | 0.00 | 0.00 | 83 | 1018.1 |
| 20260905144524 | 27 | 75 | 3.2 | 9.7 | 0.00 | 0.00 | 0.00 | 83 | 1017.8 |
| 20260905143036 | 27 | 66 | 3.2 | 9.7 | 0.00 | 0.00 | 0.00 | 84 | 1017.5 |
| 20260905141602 | 27 | 41 | 3.2 | 9.7 | 0.00 | 0.00 | 0.00 | 85 | 1017.6 |
| 20260905140019 | 26 | 52 | 0.0 | 4.8 | 0.00 | 0.00 | 0.00 | 88 | 1017.7 |
| 20260905134537 | 25 | 63 | 3.2 | 8.0 | 0.00 | 0.00 | 0.00 | 90 | 1017.5 |
| 20260905133102 | 24 | 16 | 0.0 | 0.0 | 0.00 | 0.00 | 0.00 | 92 | 1017.2 |
| 20260905133003 | 24 | 16 | 0.0 | 0.0 | 0.00 | 0.00 | 0.00 | 92 | 1017.1 |
| 20260905131529 | 23 | 16 | 0.0 | 0.0 | 0.00 | 0.00 | 0.00 | 93 | 1017.2 |
| 20260905130057 | 23 | 16 | 0.0 | 0.0 | 0.00 | 0.00 | 0.00 | 94 | 1016.8 |
| 20260905124525 | 22 | 16 | 0.0 | 0.0 | 0.00 | 0.00 | 0.00 | 96 | 1016.7 |
| 20260905123105 | 22 | 16 | 0.0 | 0.0 | 0.00 | 0.00 | 0.00 | 97 | 1016.5 |
| 20260905121519 | 21 | 16 | 0.0 | 0.0 | 0.00 | 0.00 | 0.00 | 98 | 1016.6 |
| 20260905120055 | 21 | 16 | 0.0 | 0.0 | 0.00 | 0.00 | 0.00 | 98 | 1016.6 |
| 20260905114523 | 21 | 41 | 0.0 | 0.0 | 0.00 | 0.00 | 0.00 | 98 | 1016.4 |
| 20260905113054 | 21 | 41 | 0.0 | 0.0 | 0.00 | 0.00 | 0.00 | 98 | 1015.9 |
| 20260905111521 | 21 | 41 | 0.0 | 0.0 | 0.00 | 0.00 | 0.00 | 97 | 1016.2 |
| 20260905110050 | 21 | 41 | 0.0 | 0.0 | 0.00 | 0.00 | 0.00 | 97 | 1016.4 |
| 20260905104517 | 21 | 64 | 0.0 | 0.0 | 0.00 | 0.00 | 0.00 | 97 | 1016.1 |